sensor_id;sensor_type;location;lat;lon;timestamp;P1;durP1;ratioP1;P2;durP2;ratioP2
57057;SDS011;55017;52.848;6.748;2023-06-04T00:02:04;100.50;;;97.40;;
57057;SDS011;55017;52.848;6.748;2023-06-04T00:04:30;102.50;;;99.40;;
57057;SDS011;55017;52.848;6.748;2023-06-04T00:06:55;101.10;;;98.00;;
57057;SDS011;55017;52.848;6.748;2023-06-04T00:09:21;101.30;;;98.20;;
57057;SDS011;55017;52.848;6.748;2023-06-04T00:11:47;99.50;;;96.50;;
57057;SDS011;55017;52.848;6.748;2023-06-04T00:14:13;105.85;;;102.65;;
57057;SDS011;55017;52.848;6.748;2023-06-04T00:16:40;104.35;;;101.15;;
57057;SDS011;55017;52.848;6.748;2023-06-04T00:19:05;100.50;;;97.40;;
57057;SDS011;55017;52.848;6.748;2023-06-04T00:21:31;97.40;;;94.40;;
57057;SDS011;55017;52.848;6.748;2023-06-04T00:23:57;96.50;;;93.55;;
57057;SDS011;55017;52.848;6.748;2023-06-04T00:26:24;99.40;;;96.40;;
57057;SDS011;55017;52.848;6.748;2023-06-04T00:28:49;95.20;;;92.30;;
57057;SDS011;55017;52.848;6.748;2023-06-04T00:31:15;98.20;;;95.20;;
57057;SDS011;55017;52.848;6.748;2023-06-04T00:33:41;97.70;;;94.70;;
57057;SDS011;55017;52.848;6.748;2023-06-04T00:36:06;96.75;;;93.75;;
57057;SDS011;55017;52.848;6.748;2023-06-04T00:38:32;98.30;;;95.30;;
57057;SDS011;55017;52.848;6.748;2023-06-04T00:40:58;96.20;;;93.30;;
57057;SDS011;55017;52.848;6.748;2023-06-04T00:43:24;98.60;;;95.60;;
57057;SDS011;55017;52.848;6.748;2023-06-04T00:53:09;73.40;;;71.10;;
57057;SDS011;55017;52.848;6.748;2023-06-04T00:55:36;98.80;;;95.80;;
57057;SDS011;55017;52.848;6.748;2023-06-04T00:58:01;100.50;;;97.40;;
57057;SDS011;55017;52.848;6.748;2023-06-04T01:00:29;100.65;;;97.55;;
57057;SDS011;55017;52.848;6.748;2023-06-04T01:02:55;93.00;;;90.20;;
57057;SDS011;55017;52.848;6.748;2023-06-04T01:05:36;98.40;;;95.40;;
57057;SDS011;55017;52.848;6.748;2023-06-04T01:08:08;90.30;;;87.50;;
57057;SDS011;55017;52.848;6.748;2023-06-04T01:13:01;89.10;;;86.40;;
57057;SDS011;55017;52.848;6.748;2023-06-04T01:15:27;92.70;;;89.90;;
57057;SDS011;55017;52.848;6.748;2023-06-04T01:17:54;94.00;;;91.10;;
57057;SDS011;55017;52.848;6.748;2023-06-04T01:33:00;90.70;;;87.90;;
57057;SDS011;55017;52.848;6.748;2023-06-04T01:42:45;97.20;;;94.20;;
57057;SDS011;55017;52.848;6.748;2023-06-04T01:59:45;97.35;;;94.35;;
57057;SDS011;55017;52.848;6.748;2023-06-04T02:02:11;96.00;;;93.10;;
57057;SDS011;55017;52.848;6.748;2023-06-04T02:07:09;68.80;;;66.60;;
57057;SDS011;55017;52.848;6.748;2023-06-04T02:09:35;122.18;;;118.43;;
57057;SDS011;55017;52.848;6.748;2023-06-04T02:12:01;123.60;;;119.80;;
57057;SDS011;55017;52.848;6.748;2023-06-04T02:14:27;120.85;;;117.15;;
57057;SDS011;55017;52.848;6.748;2023-06-04T02:16:53;120.43;;;116.72;;
57057;SDS011;55017;52.848;6.748;2023-06-04T02:19:22;93.00;;;90.18;;
57057;SDS011;55017;52.848;6.748;2023-06-04T02:21:52;120.18;;;116.47;;
57057;SDS011;55017;52.848;6.748;2023-06-04T02:24:18;97.25;;;94.25;;
57057;SDS011;55017;52.848;6.748;2023-06-04T02:26:44;120.93;;;117.22;;
57057;SDS011;55017;52.848;6.748;2023-06-04T02:29:09;96.07;;;93.18;;
57057;SDS011;55017;52.848;6.748;2023-06-04T02:31:35;121.57;;;117.88;;
57057;SDS011;55017;52.848;6.748;2023-06-04T02:34:00;95.30;;;92.40;;
57057;SDS011;55017;52.848;6.748;2023-06-04T02:36:26;123.45;;;119.65;;
57057;SDS011;55017;52.848;6.748;2023-06-04T02:38:51;95.55;;;92.65;;
57057;SDS011;55017;52.848;6.748;2023-06-04T02:41:17;95.40;;;92.50;;
57057;SDS011;55017;52.848;6.748;2023-06-04T02:43:43;122.45;;;118.72;;
57057;SDS011;55017;52.848;6.748;2023-06-04T02:46:09;95.07;;;92.18;;
57057;SDS011;55017;52.848;6.748;2023-06-04T02:48:34;124.85;;;121.05;;
57057;SDS011;55017;52.848;6.748;2023-06-04T02:51:00;121.97;;;118.28;;
57057;SDS011;55017;52.848;6.748;2023-06-04T02:53:25;122.32;;;118.63;;
57057;SDS011;55017;52.848;6.748;2023-06-04T02:55:51;122.68;;;118.95;;
57057;SDS011;55017;52.848;6.748;2023-06-04T02:58:17;124.27;;;120.47;;
57057;SDS011;55017;52.848;6.748;2023-06-04T03:00:44;97.18;;;94.18;;
57057;SDS011;55017;52.848;6.748;2023-06-04T03:03:10;125.00;;;121.20;;
57057;SDS011;55017;52.848;6.748;2023-06-04T03:05:35;97.55;;;94.55;;
57057;SDS011;55017;52.848;6.748;2023-06-04T03:08:02;100.25;;;97.22;;
57057;SDS011;55017;52.848;6.748;2023-06-04T03:10:28;120.15;;;116.47;;
57057;SDS011;55017;52.848;6.748;2023-06-04T03:12:54;97.10;;;94.13;;
57057;SDS011;55017;52.848;6.748;2023-06-04T03:15:20;124.50;;;120.70;;
57057;SDS011;55017;52.848;6.748;2023-06-04T03:17:46;121.88;;;118.18;;
57057;SDS011;55017;52.848;6.748;2023-06-04T03:20:11;96.13;;;93.20;;
57057;SDS011;55017;52.848;6.748;2023-06-04T03:22:37;97.35;;;94.35;;
57057;SDS011;55017;52.848;6.748;2023-06-04T03:25:03;127.18;;;123.28;;
57057;SDS011;55017;52.848;6.748;2023-06-04T03:27:31;124.80;;;121.00;;
57057;SDS011;55017;52.848;6.748;2023-06-04T03:29:57;126.00;;;122.13;;
57057;SDS011;55017;52.848;6.748;2023-06-04T03:32:23;94.45;;;91.55;;
57057;SDS011;55017;52.848;6.748;2023-06-04T03:34:48;99.85;;;96.85;;
57057;SDS011;55017;52.848;6.748;2023-06-04T03:37:14;120.22;;;116.53;;
57057;SDS011;55017;52.848;6.748;2023-06-04T03:39:39;123.57;;;119.78;;
57057;SDS011;55017;52.848;6.748;2023-06-04T03:42:05;123.07;;;119.30;;
57057;SDS011;55017;52.848;6.748;2023-06-04T03:44:31;126.88;;;122.97;;
57057;SDS011;55017;52.848;6.748;2023-06-04T03:46:56;123.50;;;119.72;;
57057;SDS011;55017;52.848;6.748;2023-06-04T03:49:22;99.55;;;96.55;;
57057;SDS011;55017;52.848;6.748;2023-06-04T03:51:48;127.18;;;123.28;;
57057;SDS011;55017;52.848;6.748;2023-06-04T03:54:14;127.28;;;123.38;;
57057;SDS011;55017;52.848;6.748;2023-06-04T03:56:42;96.75;;;93.80;;
57057;SDS011;55017;52.848;6.748;2023-06-04T03:59:09;126.07;;;122.20;;
57057;SDS011;55017;52.848;6.748;2023-06-04T04:01:34;126.07;;;122.18;;
57057;SDS011;55017;52.848;6.748;2023-06-04T04:04:00;98.75;;;95.75;;
57057;SDS011;55017;52.848;6.748;2023-06-04T04:06:25;124.50;;;120.70;;
57057;SDS011;55017;52.848;6.748;2023-06-04T04:08:51;126.38;;;122.47;;
57057;SDS011;55017;52.848;6.748;2023-06-04T04:11:17;102.00;;;98.90;;
57057;SDS011;55017;52.848;6.748;2023-06-04T04:13:44;98.53;;;95.53;;
57057;SDS011;55017;52.848;6.748;2023-06-04T04:16:10;104.63;;;101.43;;
57057;SDS011;55017;52.848;6.748;2023-06-04T04:18:36;106.25;;;103.05;;
57057;SDS011;55017;52.848;6.748;2023-06-04T04:21:02;108.63;;;105.32;;
57057;SDS011;55017;52.848;6.748;2023-06-04T04:23:29;125.38;;;121.55;;
57057;SDS011;55017;52.848;6.748;2023-06-04T04:25:57;101.68;;;98.57;;
57057;SDS011;55017;52.848;6.748;2023-06-04T04:28:23;102.82;;;99.72;;
57057;SDS011;55017;52.848;6.748;2023-06-04T04:30:53;123.10;;;119.32;;
57057;SDS011;55017;52.848;6.748;2023-06-04T04:33:22;101.75;;;98.65;;
57057;SDS011;55017;52.848;6.748;2023-06-04T04:35:49;101.50;;;98.40;;
57057;SDS011;55017;52.848;6.748;2023-06-04T04:38:15;128.07;;;124.18;;
57057;SDS011;55017;52.848;6.748;2023-06-04T04:40:42;106.32;;;103.13;;
57057;SDS011;55017;52.848;6.748;2023-06-04T04:43:08;104.35;;;101.15;;
57057;SDS011;55017;52.848;6.748;2023-06-04T04:45:34;104.47;;;101.28;;
57057;SDS011;55017;52.848;6.748;2023-06-04T04:47:59;126.80;;;122.90;;
57057;SDS011;55017;52.848;6.748;2023-06-04T04:50:25;102.70;;;99.60;;
57057;SDS011;55017;52.848;6.748;2023-06-04T04:52:51;124.35;;;120.53;;
57057;SDS011;55017;52.848;6.748;2023-06-04T04:55:16;124.32;;;120.53;;
57057;SDS011;55017;52.848;6.748;2023-06-04T04:57:42;98.50;;;95.50;;
57057;SDS011;55017;52.848;6.748;2023-06-04T05:00:07;128.82;;;124.85;;
57057;SDS011;55017;52.848;6.748;2023-06-04T05:02:35;129.50;;;125.53;;
57057;SDS011;55017;52.848;6.748;2023-06-04T05:05:01;125.40;;;121.57;;
57057;SDS011;55017;52.848;6.748;2023-06-04T05:07:27;110.35;;;107.05;;
57057;SDS011;55017;52.848;6.748;2023-06-04T05:09:52;100.43;;;97.38;;
57057;SDS011;55017;52.848;6.748;2023-06-04T05:12:18;126.47;;;122.57;;
57057;SDS011;55017;52.848;6.748;2023-06-04T05:14:44;126.47;;;122.57;;
57057;SDS011;55017;52.848;6.748;2023-06-04T05:17:10;105.88;;;102.68;;
57057;SDS011;55017;52.848;6.748;2023-06-04T05:19:37;103.63;;;100.50;;
57057;SDS011;55017;52.848;6.748;2023-06-04T05:22:03;126.22;;;122.32;;
57057;SDS011;55017;52.848;6.748;2023-06-04T05:24:30;125.82;;;121.95;;
57057;SDS011;55017;52.848;6.748;2023-06-04T05:26:56;101.03;;;97.93;;
57057;SDS011;55017;52.848;6.748;2023-06-04T05:29:22;101.70;;;98.60;;
57057;SDS011;55017;52.848;6.748;2023-06-04T05:31:48;127.10;;;123.20;;
57057;SDS011;55017;52.848;6.748;2023-06-04T05:34:15;127.85;;;123.95;;
57057;SDS011;55017;52.848;6.748;2023-06-04T05:36:41;100.10;;;97.05;;
57057;SDS011;55017;52.848;6.748;2023-06-04T05:39:06;126.47;;;122.57;;
57057;SDS011;55017;52.848;6.748;2023-06-04T05:41:32;102.22;;;99.13;;
57057;SDS011;55017;52.848;6.748;2023-06-04T05:43:57;127.68;;;123.78;;
57057;SDS011;55017;52.848;6.748;2023-06-04T05:46:23;123.35;;;119.55;;
57057;SDS011;55017;52.848;6.748;2023-06-04T05:48:49;127.82;;;123.93;;
57057;SDS011;55017;52.848;6.748;2023-06-04T05:51:16;123.45;;;119.65;;
57057;SDS011;55017;52.848;6.748;2023-06-04T05:53:41;126.28;;;122.38;;
57057;SDS011;55017;52.848;6.748;2023-06-04T05:56:07;123.07;;;119.28;;
57057;SDS011;55017;52.848;6.748;2023-06-04T05:58:33;126.35;;;122.45;;
57057;SDS011;55017;52.848;6.748;2023-06-04T06:00:59;123.68;;;119.88;;
57057;SDS011;55017;52.848;6.748;2023-06-04T06:03:25;122.45;;;118.70;;
57057;SDS011;55017;52.848;6.748;2023-06-04T06:05:52;123.10;;;119.30;;
57057;SDS011;55017;52.848;6.748;2023-06-04T06:08:19;113.30;;;109.85;;
57057;SDS011;55017;52.848;6.748;2023-06-04T06:10:45;124.43;;;120.63;;
57057;SDS011;55017;52.848;6.748;2023-06-04T06:13:11;121.80;;;118.07;;
57057;SDS011;55017;52.848;6.748;2023-06-04T06:15:36;123.82;;;120.03;;
57057;SDS011;55017;52.848;6.748;2023-06-04T06:18:02;123.20;;;119.40;;
57057;SDS011;55017;52.848;6.748;2023-06-04T06:20:27;104.50;;;101.30;;
57057;SDS011;55017;52.848;6.748;2023-06-04T06:22:54;100.53;;;97.45;;
57057;SDS011;55017;52.848;6.748;2023-06-04T06:25:19;120.85;;;117.15;;
57057;SDS011;55017;52.848;6.748;2023-06-04T06:27:45;122.85;;;119.07;;
57057;SDS011;55017;52.848;6.748;2023-06-04T06:30:12;121.40;;;117.70;;
57057;SDS011;55017;52.848;6.748;2023-06-04T06:32:38;124.53;;;120.72;;
57057;SDS011;55017;52.848;6.748;2023-06-04T06:35:03;121.88;;;118.18;;
57057;SDS011;55017;52.848;6.748;2023-06-04T06:37:30;124.20;;;120.40;;
57057;SDS011;55017;52.848;6.748;2023-06-04T06:39:55;123.70;;;119.90;;
57057;SDS011;55017;52.848;6.748;2023-06-04T06:42:22;102.20;;;99.10;;
57057;SDS011;55017;52.848;6.748;2023-06-04T06:44:47;122.28;;;118.55;;
57057;SDS011;55017;52.848;6.748;2023-06-04T06:47:13;121.57;;;117.88;;
57057;SDS011;55017;52.848;6.748;2023-06-04T06:49:39;123.88;;;120.07;;
57057;SDS011;55017;52.848;6.748;2023-06-04T06:52:07;124.10;;;120.30;;
57057;SDS011;55017;52.848;6.748;2023-06-04T06:54:33;122.28;;;118.57;;
57057;SDS011;55017;52.848;6.748;2023-06-04T06:56:59;123.60;;;119.80;;
57057;SDS011;55017;52.848;6.748;2023-06-04T06:59:25;123.68;;;119.88;;
57057;SDS011;55017;52.848;6.748;2023-06-04T07:01:52;124.65;;;120.85;;
57057;SDS011;55017;52.848;6.748;2023-06-04T07:04:17;120.07;;;116.40;;
57057;SDS011;55017;52.848;6.748;2023-06-04T07:06:43;123.57;;;119.78;;
57057;SDS011;55017;52.848;6.748;2023-06-04T07:09:09;121.75;;;118.05;;
57057;SDS011;55017;52.848;6.748;2023-06-04T07:11:34;122.47;;;118.75;;
57057;SDS011;55017;52.848;6.748;2023-06-04T07:14:00;122.72;;;119.00;;
57057;SDS011;55017;52.848;6.748;2023-06-04T07:16:27;121.57;;;117.88;;
57057;SDS011;55017;52.848;6.748;2023-06-04T07:18:53;124.45;;;120.65;;
57057;SDS011;55017;52.848;6.748;2023-06-04T07:21:19;117.97;;;114.38;;
57057;SDS011;55017;52.848;6.748;2023-06-04T07:23:47;122.80;;;119.07;;
57057;SDS011;55017;52.848;6.748;2023-06-04T07:26:15;117.95;;;114.35;;
57057;SDS011;55017;52.848;6.748;2023-06-04T07:28:42;115.97;;;112.47;;
57057;SDS011;55017;52.848;6.748;2023-06-04T07:31:08;122.10;;;118.40;;
57057;SDS011;55017;52.848;6.748;2023-06-04T07:33:34;118.93;;;115.32;;
57057;SDS011;55017;52.848;6.748;2023-06-04T07:36:00;118.78;;;115.18;;
57057;SDS011;55017;52.848;6.748;2023-06-04T07:38:26;119.30;;;115.70;;
57057;SDS011;55017;52.848;6.748;2023-06-04T07:40:51;119.18;;;115.57;;
57057;SDS011;55017;52.848;6.748;2023-06-04T07:43:17;120.55;;;116.85;;
57057;SDS011;55017;52.848;6.748;2023-06-04T07:45:43;114.22;;;110.72;;
57057;SDS011;55017;52.848;6.748;2023-06-04T07:48:09;121.65;;;117.95;;
57057;SDS011;55017;52.848;6.748;2023-06-04T07:50:35;118.93;;;115.32;;
57057;SDS011;55017;52.848;6.748;2023-06-04T07:53:01;120.95;;;117.25;;
57057;SDS011;55017;52.848;6.748;2023-06-04T07:55:27;119.03;;;115.40;;
57057;SDS011;55017;52.848;6.748;2023-06-04T07:57:53;118.38;;;114.78;;
57057;SDS011;55017;52.848;6.748;2023-06-04T08:00:18;118.60;;;115.00;;
57057;SDS011;55017;52.848;6.748;2023-06-04T08:02:44;116.65;;;113.10;;
57057;SDS011;55017;52.848;6.748;2023-06-04T08:05:10;117.55;;;113.95;;
57057;SDS011;55017;52.848;6.748;2023-06-04T08:07:38;115.65;;;112.15;;
57057;SDS011;55017;52.848;6.748;2023-06-04T08:10:05;118.70;;;115.10;;
57057;SDS011;55017;52.848;6.748;2023-06-04T08:12:31;117.72;;;114.13;;
57057;SDS011;55017;52.848;6.748;2023-06-04T08:14:57;114.45;;;110.95;;
57057;SDS011;55017;52.848;6.748;2023-06-04T08:17:23;117.80;;;114.20;;
57057;SDS011;55017;52.848;6.748;2023-06-04T08:19:48;116.72;;;113.15;;
57057;SDS011;55017;52.848;6.748;2023-06-04T08:22:14;119.68;;;116.05;;
57057;SDS011;55017;52.848;6.748;2023-06-04T08:24:40;117.03;;;113.47;;
57057;SDS011;55017;52.848;6.748;2023-06-04T08:27:05;112.47;;;109.07;;
57057;SDS011;55017;52.848;6.748;2023-06-04T08:29:33;119.20;;;115.60;;
57057;SDS011;55017;52.848;6.748;2023-06-04T08:32:00;116.75;;;113.20;;
57057;SDS011;55017;52.848;6.748;2023-06-04T08:34:27;117.55;;;113.95;;
57057;SDS011;55017;52.848;6.748;2023-06-04T08:36:53;115.75;;;112.25;;
57057;SDS011;55017;52.848;6.748;2023-06-04T08:39:18;114.18;;;110.68;;
57057;SDS011;55017;52.848;6.748;2023-06-04T08:41:45;119.43;;;115.82;;
57057;SDS011;55017;52.848;6.748;2023-06-04T08:44:14;116.53;;;113.03;;
57057;SDS011;55017;52.848;6.748;2023-06-04T08:46:42;116.53;;;113.00;;
57057;SDS011;55017;52.848;6.748;2023-06-04T08:49:09;117.68;;;114.07;;
57057;SDS011;55017;52.848;6.748;2023-06-04T08:51:37;114.40;;;110.90;;
57057;SDS011;55017;52.848;6.748;2023-06-04T08:54:04;114.70;;;111.20;;
57057;SDS011;55017;52.848;6.748;2023-06-04T08:56:31;115.38;;;111.88;;
57057;SDS011;55017;52.848;6.748;2023-06-04T08:59:01;110.75;;;107.38;;
57057;SDS011;55017;52.848;6.748;2023-06-04T09:01:29;112.45;;;109.05;;
57057;SDS011;55017;52.848;6.748;2023-06-04T09:03:59;106.78;;;103.55;;
57057;SDS011;55017;52.848;6.748;2023-06-04T09:06:26;109.85;;;106.50;;
57057;SDS011;55017;52.848;6.748;2023-06-04T09:11:22;113.63;;;110.18;;
57057;SDS011;55017;52.848;6.748;2023-06-04T09:13:51;112.63;;;109.22;;
57057;SDS011;55017;52.848;6.748;2023-06-04T09:16:18;105.25;;;102.05;;
57057;SDS011;55017;52.848;6.748;2023-06-04T09:18:44;112.53;;;109.13;;
57057;SDS011;55017;52.848;6.748;2023-06-04T09:21:10;106.82;;;103.60;;
57057;SDS011;55017;52.848;6.748;2023-06-04T09:23:45;110.85;;;107.55;;
57057;SDS011;55017;52.848;6.748;2023-06-04T09:26:12;100.93;;;97.85;;
57057;SDS011;55017;52.848;6.748;2023-06-04T09:28:41;99.88;;;96.85;;
57057;SDS011;55017;52.848;6.748;2023-06-04T09:31:09;90.80;;;88.00;;
57057;SDS011;55017;52.848;6.748;2023-06-04T09:33:45;86.40;;;83.70;;
57057;SDS011;55017;52.848;6.748;2023-06-04T09:36:14;87.60;;;84.90;;
57057;SDS011;55017;52.848;6.748;2023-06-04T09:38:40;89.70;;;86.90;;
57057;SDS011;55017;52.848;6.748;2023-06-04T09:43:38;91.40;;;88.60;;
57057;SDS011;55017;52.848;6.748;2023-06-04T09:46:13;87.95;;;85.25;;
57057;SDS011;55017;52.848;6.748;2023-06-04T09:48:40;86.30;;;83.65;;
57057;SDS011;55017;52.848;6.748;2023-06-04T09:51:10;110.47;;;107.13;;
57057;SDS011;55017;52.848;6.748;2023-06-04T09:53:55;115.40;;;111.90;;
57057;SDS011;55017;52.848;6.748;2023-06-04T09:56:21;111.70;;;108.30;;
57057;SDS011;55017;52.848;6.748;2023-06-04T09:58:48;110.63;;;107.28;;
57057;SDS011;55017;52.848;6.748;2023-06-04T10:01:14;111.72;;;108.32;;
57057;SDS011;55017;52.848;6.748;2023-06-04T10:03:41;104.00;;;100.80;;
57057;SDS011;55017;52.848;6.748;2023-06-04T10:06:14;110.00;;;106.70;;
57057;SDS011;55017;52.848;6.748;2023-06-04T10:08:43;111.22;;;107.82;;
57057;SDS011;55017;52.848;6.748;2023-06-04T10:11:10;112.95;;;109.55;;
57057;SDS011;55017;52.848;6.748;2023-06-04T10:13:42;109.95;;;106.65;;
57057;SDS011;55017;52.848;6.748;2023-06-04T10:16:13;113.70;;;110.25;;
57057;SDS011;55017;52.848;6.748;2023-06-04T10:18:39;111.43;;;108.03;;
57057;SDS011;55017;52.848;6.748;2023-06-04T10:21:06;111.00;;;107.60;;
57057;SDS011;55017;52.848;6.748;2023-06-04T10:23:33;111.38;;;107.97;;
57057;SDS011;55017;52.848;6.748;2023-06-04T10:25:58;113.00;;;109.60;;
57057;SDS011;55017;52.848;6.748;2023-06-04T10:28:25;111.28;;;107.88;;
57057;SDS011;55017;52.848;6.748;2023-06-04T10:30:51;109.68;;;106.38;;
57057;SDS011;55017;52.848;6.748;2023-06-04T10:33:20;113.25;;;109.85;;
57057;SDS011;55017;52.848;6.748;2023-06-04T10:38:18;109.13;;;105.82;;
57057;SDS011;55017;52.848;6.748;2023-06-04T10:40:46;111.13;;;107.72;;
57057;SDS011;55017;52.848;6.748;2023-06-04T10:43:12;106.28;;;103.07;;
57057;SDS011;55017;52.848;6.748;2023-06-04T10:45:39;107.38;;;104.13;;
57057;SDS011;55017;52.848;6.748;2023-06-04T10:48:06;106.35;;;103.15;;
57057;SDS011;55017;52.848;6.748;2023-06-04T10:50:33;104.10;;;100.93;;
57057;SDS011;55017;52.848;6.748;2023-06-04T10:53:00;103.07;;;99.95;;
57057;SDS011;55017;52.848;6.748;2023-06-04T10:55:29;106.82;;;103.63;;
57057;SDS011;55017;52.848;6.748;2023-06-04T10:57:56;102.93;;;99.80;;
57057;SDS011;55017;52.848;6.748;2023-06-04T11:00:36;102.70;;;99.60;;
57057;SDS011;55017;52.848;6.748;2023-06-04T11:03:06;100.35;;;97.30;;
57057;SDS011;55017;52.848;6.748;2023-06-04T11:05:41;102.20;;;99.10;;
57057;SDS011;55017;52.848;6.748;2023-06-04T11:08:09;98.68;;;95.68;;
57057;SDS011;55017;52.848;6.748;2023-06-04T11:10:45;96.70;;;93.75;;
57057;SDS011;55017;52.848;6.748;2023-06-04T11:13:11;92.30;;;89.50;;
57057;SDS011;55017;52.848;6.748;2023-06-04T11:15:43;94.80;;;91.90;;
57057;SDS011;55017;52.848;6.748;2023-06-04T11:18:14;91.85;;;89.05;;
57057;SDS011;55017;52.848;6.748;2023-06-04T11:20:40;88.00;;;85.30;;
57057;SDS011;55017;52.848;6.748;2023-06-04T11:25:33;90.40;;;87.60;;
57057;SDS011;55017;52.848;6.748;2023-06-04T11:27:59;91.10;;;88.30;;
57057;SDS011;55017;52.848;6.748;2023-06-04T11:30:26;87.60;;;84.90;;
57057;SDS011;55017;52.848;6.748;2023-06-04T11:35:28;94.00;;;91.20;;
57057;SDS011;55017;52.848;6.748;2023-06-04T11:37:54;93.30;;;90.50;;
57057;SDS011;55017;52.848;6.748;2023-06-04T11:40:22;90.60;;;87.80;;
57057;SDS011;55017;52.848;6.748;2023-06-04T11:42:48;86.50;;;83.80;;
57057;SDS011;55017;52.848;6.748;2023-06-04T11:45:15;85.60;;;83.00;;
57057;SDS011;55017;52.848;6.748;2023-06-04T11:47:49;95.85;;;92.95;;
57057;SDS011;55017;52.848;6.748;2023-06-04T11:55:08;84.70;;;82.10;;
57057;SDS011;55017;52.848;6.748;2023-06-04T11:57:35;82.60;;;80.05;;
57057;SDS011;55017;52.848;6.748;2023-06-04T12:04:53;83.90;;;81.30;;
57057;SDS011;55017;52.848;6.748;2023-06-04T12:07:19;83.30;;;80.70;;
57057;SDS011;55017;52.848;6.748;2023-06-04T12:09:49;85.20;;;82.60;;
57057;SDS011;55017;52.848;6.748;2023-06-04T12:12:15;83.70;;;81.10;;
57057;SDS011;55017;52.848;6.748;2023-06-04T12:14:55;83.35;;;80.75;;
57057;SDS011;55017;52.848;6.748;2023-06-04T12:17:22;83.30;;;80.70;;
57057;SDS011;55017;52.848;6.748;2023-06-04T12:22:14;85.45;;;82.85;;
57057;SDS011;55017;52.848;6.748;2023-06-04T12:24:50;85.80;;;83.20;;
57057;SDS011;55017;52.848;6.748;2023-06-04T12:27:20;84.00;;;81.40;;
57057;SDS011;55017;52.848;6.748;2023-06-04T12:32:27;83.40;;;80.80;;
57057;SDS011;55017;52.848;6.748;2023-06-04T12:34:53;84.70;;;82.10;;
57057;SDS011;55017;52.848;6.748;2023-06-04T12:37:20;84.55;;;81.95;;
57057;SDS011;55017;52.848;6.748;2023-06-04T12:39:46;83.00;;;80.40;;
57057;SDS011;55017;52.848;6.748;2023-06-04T12:42:12;84.20;;;81.60;;
57057;SDS011;55017;52.848;6.748;2023-06-04T12:59:12;79.90;;;77.40;;
57057;SDS011;55017;52.848;6.748;2023-06-04T13:01:37;95.50;;;92.60;;
57057;SDS011;55017;52.848;6.748;2023-06-04T13:04:03;91.00;;;88.20;;
57057;SDS011;55017;52.848;6.748;2023-06-04T13:08:56;85.45;;;82.85;;
57057;SDS011;55017;52.848;6.748;2023-06-04T13:11:21;82.60;;;80.00;;
57057;SDS011;55017;52.848;6.748;2023-06-04T13:16:13;84.40;;;81.80;;
57057;SDS011;55017;52.848;6.748;2023-06-04T13:28:20;106.78;;;103.57;;
57057;SDS011;55017;52.848;6.748;2023-06-04T13:30:46;107.35;;;104.15;;
57057;SDS011;55017;52.848;6.748;2023-06-04T13:33:12;108.13;;;104.82;;
57057;SDS011;55017;52.848;6.748;2023-06-04T13:35:37;108.20;;;104.90;;
57057;SDS011;55017;52.848;6.748;2023-06-04T13:38:04;107.07;;;103.88;;
57057;SDS011;55017;52.848;6.748;2023-06-04T13:40:31;97.28;;;94.38;;
57057;SDS011;55017;52.848;6.748;2023-06-04T13:42:59;102.30;;;99.20;;
57057;SDS011;55017;52.848;6.748;2023-06-04T13:45:24;103.93;;;100.82;;
57057;SDS011;55017;52.848;6.748;2023-06-04T13:47:50;105.93;;;102.72;;
57057;SDS011;55017;52.848;6.748;2023-06-04T13:50:15;107.70;;;104.50;;
57057;SDS011;55017;52.848;6.748;2023-06-04T13:52:41;96.97;;;94.07;;
57057;SDS011;55017;52.848;6.748;2023-06-04T13:55:07;90.97;;;88.18;;
57057;SDS011;55017;52.848;6.748;2023-06-04T13:57:33;97.05;;;94.15;;
57057;SDS011;55017;52.848;6.748;2023-06-04T13:59:59;102.95;;;99.85;;
57057;SDS011;55017;52.848;6.748;2023-06-04T14:02:25;104.40;;;101.30;;
57057;SDS011;55017;52.848;6.748;2023-06-04T14:04:52;105.35;;;102.15;;
57057;SDS011;55017;52.848;6.748;2023-06-04T14:07:18;104.33;;;101.23;;
57057;SDS011;55017;52.848;6.748;2023-06-04T14:09:44;105.00;;;101.80;;
57057;SDS011;55017;52.848;6.748;2023-06-04T14:12:10;106.15;;;102.95;;
57057;SDS011;55017;52.848;6.748;2023-06-04T14:14:35;110.88;;;107.57;;
57057;SDS011;55017;52.848;6.748;2023-06-04T14:17:02;107.05;;;103.85;;
57057;SDS011;55017;52.848;6.748;2023-06-04T14:19:28;105.13;;;101.93;;
57057;SDS011;55017;52.848;6.748;2023-06-04T14:21:53;103.20;;;100.07;;
57057;SDS011;55017;52.848;6.748;2023-06-04T14:24:19;103.22;;;100.13;;
57057;SDS011;55017;52.848;6.748;2023-06-04T14:26:45;98.70;;;95.70;;
57057;SDS011;55017;52.848;6.748;2023-06-04T14:29:10;102.72;;;99.63;;
57057;SDS011;55017;52.848;6.748;2023-06-04T14:36:28;96.75;;;93.82;;
57057;SDS011;55017;52.848;6.748;2023-06-04T14:38:53;96.63;;;93.73;;
57057;SDS011;55017;52.848;6.748;2023-06-04T14:43:44;105.15;;;101.95;;
57057;SDS011;55017;52.848;6.748;2023-06-04T14:46:10;103.28;;;100.18;;
57057;SDS011;55017;52.848;6.748;2023-06-04T14:48:35;101.80;;;98.70;;
57057;SDS011;55017;52.848;6.748;2023-06-04T14:51:01;101.38;;;98.28;;
57057;SDS011;55017;52.848;6.748;2023-06-04T14:53:26;96.55;;;93.65;;
57057;SDS011;55017;52.848;6.748;2023-06-04T14:55:52;95.43;;;92.53;;
57057;SDS011;55017;52.848;6.748;2023-06-04T14:58:18;99.60;;;96.60;;
57057;SDS011;55017;52.848;6.748;2023-06-04T15:00:43;98.40;;;95.40;;
57057;SDS011;55017;52.848;6.748;2023-06-04T15:03:09;93.10;;;90.30;;
57057;SDS011;55017;52.848;6.748;2023-06-04T15:05:35;92.45;;;89.65;;
57057;SDS011;55017;52.848;6.748;2023-06-04T15:08:01;92.23;;;89.43;;
57057;SDS011;55017;52.848;6.748;2023-06-04T15:10:28;90.80;;;88.00;;
57057;SDS011;55017;52.848;6.748;2023-06-04T15:12:54;91.45;;;88.65;;
57057;SDS011;55017;52.848;6.748;2023-06-04T15:15:20;90.95;;;88.15;;
57057;SDS011;55017;52.848;6.748;2023-06-04T15:17:45;92.20;;;89.40;;
57057;SDS011;55017;52.848;6.748;2023-06-04T15:25:03;83.20;;;80.60;;
57057;SDS011;55017;52.848;6.748;2023-06-04T15:27:28;83.20;;;80.60;;
57057;SDS011;55017;52.848;6.748;2023-06-04T15:29:54;82.82;;;80.22;;
57057;SDS011;55017;52.848;6.748;2023-06-04T15:34:46;82.35;;;79.80;;
57057;SDS011;55017;52.848;6.748;2023-06-04T15:37:12;77.80;;;75.40;;
57057;SDS011;55017;52.848;6.748;2023-06-04T15:39:37;77.95;;;75.55;;
57057;SDS011;55017;52.848;6.748;2023-06-04T15:44:28;80.15;;;77.65;;
57057;SDS011;55017;52.848;6.748;2023-06-04T15:46:54;85.60;;;83.00;;
57057;SDS011;55017;52.848;6.748;2023-06-04T15:49:20;79.00;;;76.55;;
57057;SDS011;55017;52.848;6.748;2023-06-04T15:51:45;80.60;;;78.10;;
57057;SDS011;55017;52.848;6.748;2023-06-04T15:54:11;74.70;;;72.40;;
57057;SDS011;55017;52.848;6.748;2023-06-04T15:56:37;79.10;;;76.60;;
57057;SDS011;55017;52.848;6.748;2023-06-04T15:59:03;78.80;;;76.30;;
57057;SDS011;55017;52.848;6.748;2023-06-04T16:01:29;76.50;;;74.10;;
57057;SDS011;55017;52.848;6.748;2023-06-04T16:06:20;74.00;;;71.70;;